sensor_id;sensor_type;location;lat;lon;timestamp;pressure;altitude;pressure_sealevel;temperature;humidity
79534;BME280;68982;52.160;6.736;2024-03-25T00:00:31;100304.66;;;3.94;100.00
79534;BME280;68982;52.160;6.736;2024-03-25T00:02:56;100299.47;;;3.92;100.00
79534;BME280;68982;52.160;6.736;2024-03-25T00:05:22;100306.94;;;3.89;100.00
79534;BME280;68982;52.160;6.736;2024-03-25T00:07:48;100316.13;;;3.86;100.00
79534;BME280;68982;52.160;6.736;2024-03-25T00:10:14;100313.78;;;3.83;100.00
79534;BME280;68982;52.160;6.736;2024-03-25T00:12:39;100319.09;;;3.83;100.00
79534;BME280;68982;52.160;6.736;2024-03-25T00:15:05;100321.25;;;3.80;100.00
79534;BME280;68982;52.160;6.736;2024-03-25T00:17:30;100324.59;;;3.82;100.00
79534;BME280;68982;52.160;6.736;2024-03-25T00:19:56;100319.09;;;3.83;100.00
79534;BME280;68982;52.160;6.736;2024-03-25T00:22:22;100328.75;;;3.84;100.00
79534;BME280;68982;52.160;6.736;2024-03-25T00:24:50;100326.78;;;3.86;100.00
79534;BME280;68982;52.160;6.736;2024-03-25T00:27:16;100324.78;;;3.88;100.00
79534;BME280;68982;52.160;6.736;2024-03-25T00:29:42;100317.25;;;3.84;100.00
79534;BME280;68982;52.160;6.736;2024-03-25T00:32:07;100320.13;;;3.90;100.00
79534;BME280;68982;52.160;6.736;2024-03-25T00:34:34;100309.47;;;3.90;100.00
79534;BME280;68982;52.160;6.736;2024-03-25T00:37:00;100322.66;;;3.92;100.00
79534;BME280;68982;52.160;6.736;2024-03-25T00:39:26;100321.50;;;3.94;100.00
79534;BME280;68982;52.160;6.736;2024-03-25T00:41:52;100315.00;;;3.97;100.00
79534;BME280;68982;52.160;6.736;2024-03-25T00:44:17;100312.19;;;3.99;100.00
79534;BME280;68982;52.160;6.736;2024-03-25T00:46:42;100311.88;;;4.02;100.00
79534;BME280;68982;52.160;6.736;2024-03-25T00:49:09;100306.53;;;4.02;100.00
79534;BME280;68982;52.160;6.736;2024-03-25T00:51:35;100303.19;;;4.00;100.00
79534;BME280;68982;52.160;6.736;2024-03-25T00:54:01;100311.88;;;4.02;100.00
79534;BME280;68982;52.160;6.736;2024-03-25T00:56:26;100313.06;;;4.07;100.00
79534;BME280;68982;52.160;6.736;2024-03-25T00:58:52;100311.25;;;4.08;100.00
79534;BME280;68982;52.160;6.736;2024-03-25T01:01:17;100310.91;;;4.11;100.00
79534;BME280;68982;52.160;6.736;2024-03-25T01:03:43;100310.41;;;4.07;100.00
79534;BME280;68982;52.160;6.736;2024-03-25T01:06:08;100308.38;;;4.01;100.00
79534;BME280;68982;52.160;6.736;2024-03-25T01:08:34;100304.53;;;4.04;100.00
79534;BME280;68982;52.160;6.736;2024-03-25T01:10:59;100315.75;;;4.07;100.00
79534;BME280;68982;52.160;6.736;2024-03-25T01:13:25;100314.72;;;4.08;100.00
79534;BME280;68982;52.160;6.736;2024-03-25T01:15:51;100305.06;;;4.07;100.00
79534;BME280;68982;52.160;6.736;2024-03-25T01:18:17;100314.59;;;4.10;100.00
79534;BME280;68982;52.160;6.736;2024-03-25T01:20:42;100315.25;;;4.12;100.00
79534;BME280;68982;52.160;6.736;2024-03-25T01:23:08;100308.09;;;4.12;100.00
79534;BME280;68982;52.160;6.736;2024-03-25T01:25:33;100318.13;;;4.19;100.00
79534;BME280;68982;52.160;6.736;2024-03-25T01:27:59;100314.44;;;4.11;100.00
79534;BME280;68982;52.160;6.736;2024-03-25T01:30:24;100322.06;;;4.06;100.00
79534;BME280;68982;52.160;6.736;2024-03-25T01:32:49;100326.03;;;4.02;100.00
79534;BME280;68982;52.160;6.736;2024-03-25T01:35:15;100315.38;;;4.02;100.00
79534;BME280;68982;52.160;6.736;2024-03-25T01:37:41;100326.50;;;3.98;100.00
79534;BME280;68982;52.160;6.736;2024-03-25T01:40:07;100322.88;;;3.99;100.00
79534;BME280;68982;52.160;6.736;2024-03-25T01:42:33;100319.56;;;4.05;100.00
79534;BME280;68982;52.160;6.736;2024-03-25T01:44:58;100320.91;;;4.09;100.00
79534;BME280;68982;52.160;6.736;2024-03-25T01:47:24;100317.75;;;4.13;100.00
79534;BME280;68982;52.160;6.736;2024-03-25T01:49:50;100314.63;;;4.18;100.00
79534;BME280;68982;52.160;6.736;2024-03-25T01:52:19;100318.13;;;4.19;100.00
79534;BME280;68982;52.160;6.736;2024-03-25T01:54:45;100315.09;;;4.13;100.00
79534;BME280;68982;52.160;6.736;2024-03-25T01:57:11;100307.22;;;4.04;100.00
79534;BME280;68982;52.160;6.736;2024-03-25T01:59:37;100324.72;;;4.06;100.00
79534;BME280;68982;52.160;6.736;2024-03-25T02:02:04;100326.91;;;4.03;100.00
79534;BME280;68982;52.160;6.736;2024-03-25T02:04:29;100326.00;;;3.94;100.00
79534;BME280;68982;52.160;6.736;2024-03-25T02:06:56;100322.13;;;3.88;100.00
79534;BME280;68982;52.160;6.736;2024-03-25T02:09:23;100329.91;;;3.82;100.00
79534;BME280;68982;52.160;6.736;2024-03-25T02:11:49;100330.88;;;3.72;100.00
79534;BME280;68982;52.160;6.736;2024-03-25T02:14:15;100338.41;;;3.77;100.00
79534;BME280;68982;52.160;6.736;2024-03-25T02:16:41;100331.19;;;3.69;100.00
79534;BME280;68982;52.160;6.736;2024-03-25T02:19:07;100335.16;;;3.65;100.00
79534;BME280;68982;52.160;6.736;2024-03-25T02:21:34;100324.28;;;3.59;100.00
79534;BME280;68982;52.160;6.736;2024-03-25T02:24:00;100322.22;;;3.52;100.00
79534;BME280;68982;52.160;6.736;2024-03-25T02:26:26;100339.91;;;3.53;100.00
79534;BME280;68982;52.160;6.736;2024-03-25T02:28:51;100334.66;;;3.44;100.00
79534;BME280;68982;52.160;6.736;2024-03-25T02:31:17;100334.66;;;3.44;100.00
79534;BME280;68982;52.160;6.736;2024-03-25T02:33:42;100335.94;;;3.40;100.00
79534;BME280;68982;52.160;6.736;2024-03-25T02:36:11;100340.22;;;3.32;100.00
79534;BME280;68982;52.160;6.736;2024-03-25T02:38:36;100353.56;;;3.32;100.00
79534;BME280;68982;52.160;6.736;2024-03-25T02:41:02;100346.25;;;3.35;100.00
79534;BME280;68982;52.160;6.736;2024-03-25T02:43:28;100343.50;;;3.26;100.00
79534;BME280;68982;52.160;6.736;2024-03-25T02:45:53;100335.13;;;3.21;100.00
79534;BME280;68982;52.160;6.736;2024-03-25T02:48:19;100326.22;;;3.13;100.00
79534;BME280;68982;52.160;6.736;2024-03-25T02:50:44;100349.47;;;3.20;100.00
79534;BME280;68982;52.160;6.736;2024-03-25T02:53:09;100346.72;;;3.12;100.00
79534;BME280;68982;52.160;6.736;2024-03-25T02:55:35;100346.41;;;3.15;100.00
79534;BME280;68982;52.160;6.736;2024-03-25T02:58:00;100332.38;;;3.13;100.00
79534;BME280;68982;52.160;6.736;2024-03-25T03:00:25;100335.75;;;3.15;100.00
79534;BME280;68982;52.160;6.736;2024-03-25T03:02:51;100339.09;;;3.17;100.00
79534;BME280;68982;52.160;6.736;2024-03-25T03:05:16;100346.94;;;3.19;100.00
79534;BME280;68982;52.160;6.736;2024-03-25T03:07:41;100350.44;;;3.19;100.00
79534;BME280;68982;52.160;6.736;2024-03-25T03:10:07;100344.41;;;3.17;100.00
79534;BME280;68982;52.160;6.736;2024-03-25T03:12:32;100345.66;;;3.23;100.00
79534;BME280;68982;52.160;6.736;2024-03-25T03:14:57;100345.09;;;3.19;100.00
79534;BME280;68982;52.160;6.736;2024-03-25T03:17:23;100349.59;;;3.19;100.00
79534;BME280;68982;52.160;6.736;2024-03-25T03:19:49;100352.94;;;3.21;100.00
79534;BME280;68982;52.160;6.736;2024-03-25T03:22:14;100356.13;;;3.24;100.00
79534;BME280;68982;52.160;6.736;2024-03-25T03:24:39;100357.97;;;3.24;100.00
79534;BME280;68982;52.160;6.736;2024-03-25T03:27:05;100357.59;;;3.19;100.00
79534;BME280;68982;52.160;6.736;2024-03-25T03:29:30;100353.09;;;3.19;100.00
79534;BME280;68982;52.160;6.736;2024-03-25T03:31:55;100355.75;;;3.19;100.00
79534;BME280;68982;52.160;6.736;2024-03-25T03:34:22;100371.28;;;3.24;100.00
79534;BME280;68982;52.160;6.736;2024-03-25T03:36:47;100365.97;;;3.24;100.00
79534;BME280;68982;52.160;6.736;2024-03-25T03:39:12;100368.34;;;3.27;100.00
79534;BME280;68982;52.160;6.736;2024-03-25T03:41:38;100374.78;;;3.24;100.00
79534;BME280;68982;52.160;6.736;2024-03-25T03:44:04;100371.16;;;3.25;100.00
79534;BME280;68982;52.160;6.736;2024-03-25T03:46:29;100367.66;;;3.25;100.00
79534;BME280;68982;52.160;6.736;2024-03-25T03:48:54;100355.44;;;3.22;100.00
79534;BME280;68982;52.160;6.736;2024-03-25T03:51:20;100366.66;;;3.26;100.00
79534;BME280;68982;52.160;6.736;2024-03-25T03:53:45;100365.34;;;3.30;100.00
79534;BME280;68982;52.160;6.736;2024-03-25T03:56:11;100368.03;;;3.30;100.00
79534;BME280;68982;52.160;6.736;2024-03-25T03:58:36;100363.88;;;3.36;100.00
79534;BME280;68982;52.160;6.736;2024-03-25T04:01:01;100366.72;;;3.34;100.00
79534;BME280;68982;52.160;6.736;2024-03-25T04:03:28;100364.06;;;3.34;100.00
79534;BME280;68982;52.160;6.736;2024-03-25T04:05:53;100354.00;;;3.28;100.00
79534;BME280;68982;52.160;6.736;2024-03-25T04:08:19;100364.22;;;3.32;100.00
79534;BME280;68982;52.160;6.736;2024-03-25T04:10:45;100350.19;;;3.30;100.00
79534;BME280;68982;52.160;6.736;2024-03-25T04:13:11;100357.22;;;3.31;100.00
79534;BME280;68982;52.160;6.736;2024-03-25T04:15:37;100356.22;;;3.32;100.00
79534;BME280;68982;52.160;6.736;2024-03-25T04:18:03;100358.88;;;3.32;100.00
79534;BME280;68982;52.160;6.736;2024-03-25T04:20:29;100358.56;;;3.36;100.00
79534;BME280;68982;52.160;6.736;2024-03-25T04:22:54;100360.41;;;3.35;100.00
79534;BME280;68982;52.160;6.736;2024-03-25T04:25:20;100357.50;;;3.28;100.00
79534;BME280;68982;52.160;6.736;2024-03-25T04:27:46;100353.69;;;3.31;100.00
79534;BME280;68982;52.160;6.736;2024-03-25T04:30:12;100345.88;;;3.29;100.00
79534;BME280;68982;52.160;6.736;2024-03-25T04:32:38;100349.38;;;3.30;100.00
79534;BME280;68982;52.160;6.736;2024-03-25T04:35:05;100362.22;;;3.35;100.00
79534;BME280;68982;52.160;6.736;2024-03-25T04:37:32;100357.72;;;3.35;100.00
79534;BME280;68982;52.160;6.736;2024-03-25T04:39:57;100366.56;;;3.36;100.00
79534;BME280;68982;52.160;6.736;2024-03-25T04:42:23;100356.34;;;3.31;100.00
79534;BME280;68982;52.160;6.736;2024-03-25T04:44:49;100356.06;;;3.34;100.00
79534;BME280;68982;52.160;6.736;2024-03-25T04:47:16;100362.38;;;3.33;100.00
79534;BME280;68982;52.160;6.736;2024-03-25T04:49:41;100357.72;;;3.35;100.00
79534;BME280;68982;52.160;6.736;2024-03-25T04:52:07;100356.91;;;3.35;100.00
79534;BME280;68982;52.160;6.736;2024-03-25T04:54:32;100358.75;;;3.34;100.00
79534;BME280;68982;52.160;6.736;2024-03-25T04:56:58;100359.19;;;3.29;100.00
79534;BME280;68982;52.160;6.736;2024-03-25T04:59:23;100367.47;;;3.26;100.00
79534;BME280;68982;52.160;6.736;2024-03-25T05:01:48;100368.63;;;3.24;100.00
79534;BME280;68982;52.160;6.736;2024-03-25T05:04:14;100367.47;;;3.26;100.00
79534;BME280;68982;52.160;6.736;2024-03-25T05:06:39;100353.94;;;3.20;100.00
79534;BME280;68982;52.160;6.736;2024-03-25T05:09:04;100366.66;;;3.26;100.00
79534;BME280;68982;52.160;6.736;2024-03-25T05:11:32;100367.47;;;3.26;100.00
79534;BME280;68982;52.160;6.736;2024-03-25T05:13:57;100369.63;;;3.23;100.00
79534;BME280;68982;52.160;6.736;2024-03-25T05:16:22;100370.47;;;3.23;100.00
79534;BME280;68982;52.160;6.736;2024-03-25T05:18:48;100371.59;;;3.21;100.00
79534;BME280;68982;52.160;6.736;2024-03-25T05:21:13;100379.44;;;3.22;100.00
79534;BME280;68982;52.160;6.736;2024-03-25T05:23:38;100375.41;;;3.18;100.00
79534;BME280;68982;52.160;6.736;2024-03-25T05:26:04;100375.00;;;3.13;100.00
79534;BME280;68982;52.160;6.736;2024-03-25T05:28:29;100377.00;;;3.11;100.00
79534;BME280;68982;52.160;6.736;2024-03-25T05:30:54;100376.75;;;3.04;100.00
79534;BME280;68982;52.160;6.736;2024-03-25T05:33:20;100389.56;;;3.01;100.00
79534;BME280;68982;52.160;6.736;2024-03-25T05:35:45;100386.34;;;2.97;100.00
79534;BME280;68982;52.160;6.736;2024-03-25T05:38:10;100393.66;;;2.95;100.00
79534;BME280;68982;52.160;6.736;2024-03-25T05:40:36;100398.00;;;2.96;100.00
79534;BME280;68982;52.160;6.736;2024-03-25T05:43:02;100397.13;;;2.96;100.00
79534;BME280;68982;52.160;6.736;2024-03-25T05:45:27;100388.06;;;2.88;100.00
79534;BME280;68982;52.160;6.736;2024-03-25T05:47:52;100388.06;;;2.88;100.00
79534;BME280;68982;52.160;6.736;2024-03-25T05:50:18;100397.44;;;2.93;100.00
79534;BME280;68982;52.160;6.736;2024-03-25T05:52:43;100382.50;;;2.82;100.00
79534;BME280;68982;52.160;6.736;2024-03-25T05:55:09;100395.38;;;2.86;100.00
79534;BME280;68982;52.160;6.736;2024-03-25T05:57:37;100399.41;;;2.90;100.00
79534;BME280;68982;52.160;6.736;2024-03-25T06:00:03;100404.28;;;2.95;100.00
79534;BME280;68982;52.160;6.736;2024-03-25T06:02:29;100397.44;;;2.93;100.00
79534;BME280;68982;52.160;6.736;2024-03-25T06:04:55;100397.53;;;3.01;100.00
79534;BME280;68982;52.160;6.736;2024-03-25T06:07:22;100407.28;;;3.10;100.00
79534;BME280;68982;52.160;6.736;2024-03-25T06:09:47;100394.28;;;3.07;100.00
79534;BME280;68982;52.160;6.736;2024-03-25T06:12:12;100408.22;;;3.19;100.00
79534;BME280;68982;52.160;6.736;2024-03-25T06:14:38;100397.41;;;3.20;100.00
79534;BME280;68982;52.160;6.736;2024-03-25T06:17:04;100397.09;;;3.23;100.00
79534;BME280;68982;52.160;6.736;2024-03-25T06:19:29;100404.31;;;3.31;100.00
79534;BME280;68982;52.160;6.736;2024-03-25T06:21:54;100408.38;;;3.35;100.00
79534;BME280;68982;52.160;6.736;2024-03-25T06:24:20;100400.78;;;3.40;100.00
79534;BME280;68982;52.160;6.736;2024-03-25T06:26:45;100391.09;;;3.39;100.00
79534;BME280;68982;52.160;6.736;2024-03-25T06:29:10;100397.19;;;3.49;100.00
79534;BME280;68982;52.160;6.736;2024-03-25T06:31:36;100408.06;;;3.56;100.00
79534;BME280;68982;52.160;6.736;2024-03-25T06:34:20;100389.88;;;3.51;100.00
79534;BME280;68982;52.160;6.736;2024-03-25T06:36:48;100402.44;;;3.59;100.00
79534;BME280;68982;52.160;6.736;2024-03-25T06:39:14;100404.25;;;3.59;100.00
79534;BME280;68982;52.160;6.736;2024-03-25T06:41:40;100406.47;;;3.63;100.00
79534;BME280;68982;52.160;6.736;2024-03-25T06:44:05;100402.97;;;3.63;100.00
79534;BME280;68982;52.160;6.736;2024-03-25T06:46:31;100409.13;;;3.63;100.00
79534;BME280;68982;52.160;6.736;2024-03-25T06:48:56;100401.66;;;3.67;100.00
79534;BME280;68982;52.160;6.736;2024-03-25T06:51:22;100394.66;;;3.66;100.00
79534;BME280;68982;52.160;6.736;2024-03-25T06:53:47;100393.09;;;3.81;100.00
79534;BME280;68982;52.160;6.736;2024-03-25T06:56:13;100396.41;;;4.01;100.00
79534;BME280;68982;52.160;6.736;2024-03-25T06:58:38;100409.00;;;4.17;100.00
79534;BME280;68982;52.160;6.736;2024-03-25T07:01:06;100404.22;;;4.29;100.00
79534;BME280;68982;52.160;6.736;2024-03-25T07:03:32;100399.97;;;4.36;100.00
79534;BME280;68982;52.160;6.736;2024-03-25T07:05:58;100413.31;;;4.44;100.00
79534;BME280;68982;52.160;6.736;2024-03-25T07:08:25;100407.84;;;4.46;100.00
79534;BME280;68982;52.160;6.736;2024-03-25T07:10:51;100417.91;;;4.52;100.00
79534;BME280;68982;52.160;6.736;2024-03-25T07:13:16;100416.38;;;4.49;100.00
79534;BME280;68982;52.160;6.736;2024-03-25T07:15:42;100414.59;;;4.58;100.00
79534;BME280;68982;52.160;6.736;2024-03-25T07:18:08;100415.78;;;4.64;100.00
79534;BME280;68982;52.160;6.736;2024-03-25T07:20:36;100418.78;;;4.61;100.00
79534;BME280;68982;52.160;6.736;2024-03-25T07:23:02;100411.44;;;4.63;100.00
79534;BME280;68982;52.160;6.736;2024-03-25T07:25:28;100418.31;;;4.73;100.00
79534;BME280;68982;52.160;6.736;2024-03-25T07:27:54;100414.44;;;4.68;100.00
79534;BME280;68982;52.160;6.736;2024-03-25T07:30:20;100417.84;;;4.78;100.00
79534;BME280;68982;52.160;6.736;2024-03-25T07:32:47;100423.38;;;4.85;100.00
79534;BME280;68982;52.160;6.736;2024-03-25T07:35:13;100416.69;;;4.89;100.00
79534;BME280;68982;52.160;6.736;2024-03-25T07:37:38;100420.22;;;4.97;100.00
79534;BME280;68982;52.160;6.736;2024-03-25T07:40:04;100434.97;;;5.10;100.00
79534;BME280;68982;52.160;6.736;2024-03-25T07:42:30;100441.84;;;5.21;100.00
79534;BME280;68982;52.160;6.736;2024-03-25T07:44:56;100434.16;;;5.09;100.00
79534;BME280;68982;52.160;6.736;2024-03-25T07:47:21;100429.78;;;5.08;100.00
79534;BME280;68982;52.160;6.736;2024-03-25T07:49:47;100415.06;;;5.04;100.00
79534;BME280;68982;52.160;6.736;2024-03-25T07:52:12;100427.63;;;5.12;100.00
79534;BME280;68982;52.160;6.736;2024-03-25T07:54:39;100416.94;;;5.12;100.00
79534;BME280;68982;52.160;6.736;2024-03-25T07:57:04;100431.50;;;5.26;100.00
79534;BME280;68982;52.160;6.736;2024-03-25T07:59:30;100436.69;;;5.35;100.00
79534;BME280;68982;52.160;6.736;2024-03-25T08:01:55;100429.00;;;5.32;100.00
79534;BME280;68982;52.160;6.736;2024-03-25T08:04:21;100435.88;;;5.43;100.00
79534;BME280;68982;52.160;6.736;2024-03-25T08:06:46;100424.03;;;5.54;100.00
79534;BME280;68982;52.160;6.736;2024-03-25T08:09:12;100433.06;;;5.61;100.00
79534;BME280;68982;52.160;6.736;2024-03-25T08:11:39;100431.06;;;5.79;100.00
79534;BME280;68982;52.160;6.736;2024-03-25T08:14:04;100436.47;;;5.96;100.00
79534;BME280;68982;52.160;6.736;2024-03-25T08:16:29;100430.03;;;5.89;100.00
79534;BME280;68982;52.160;6.736;2024-03-25T08:18:55;100427.06;;;6.00;100.00
79534;BME280;68982;52.160;6.736;2024-03-25T08:21:20;100432.88;;;6.20;100.00
79534;BME280;68982;52.160;6.736;2024-03-25T08:23:46;100428.88;;;6.24;100.00
79534;BME280;68982;52.160;6.736;2024-03-25T08:26:11;100438.53;;;6.41;100.00
79534;BME280;68982;52.160;6.736;2024-03-25T08:28:37;100444.78;;;6.81;100.00
79534;BME280;68982;52.160;6.736;2024-03-25T08:31:03;100436.19;;;7.25;100.00
79534;BME280;68982;52.160;6.736;2024-03-25T08:33:28;100433.22;;;7.20;100.00
79534;BME280;68982;52.160;6.736;2024-03-25T08:35:55;100441.69;;;7.32;100.00
79534;BME280;68982;52.160;6.736;2024-03-25T08:38:20;100443.16;;;8.04;100.00
79534;BME280;68982;52.160;6.736;2024-03-25T08:40:45;100439.16;;;8.23;100.00
79534;BME280;68982;52.160;6.736;2024-03-25T08:43:11;100446.19;;;8.39;100.00
79534;BME280;68982;52.160;6.736;2024-03-25T08:45:36;100440.75;;;7.94;100.00
79534;BME280;68982;52.160;6.736;2024-03-25T08:48:01;100439.63;;;7.65;100.00
79534;BME280;68982;52.160;6.736;2024-03-25T08:50:27;100435.19;;;8.48;100.00
79534;BME280;68982;52.160;6.736;2024-03-25T08:52:52;100436.31;;;9.35;100.00
79534;BME280;68982;52.160;6.736;2024-03-25T08:55:17;100434.16;;;10.16;100.00
79534;BME280;68982;52.160;6.736;2024-03-25T08:57:44;100431.56;;;9.80;100.00
79534;BME280;68982;52.160;6.736;2024-03-25T09:00:10;100443.97;;;9.17;100.00
79534;BME280;68982;52.160;6.736;2024-03-25T09:02:36;100439.09;;;9.27;100.00
79534;BME280;68982;52.160;6.736;2024-03-25T09:05:02;100432.13;;;10.19;100.00
79534;BME280;68982;52.160;6.736;2024-03-25T09:07:30;100434.00;;;9.75;100.00
79534;BME280;68982;52.160;6.736;2024-03-25T09:09:56;100439.50;;;9.24;100.00
79534;BME280;68982;52.160;6.736;2024-03-25T09:12:40;100438.38;;;9.54;100.00
79534;BME280;68982;52.160;6.736;2024-03-25T09:15:06;100431.38;;;9.82;100.00
79534;BME280;68982;52.160;6.736;2024-03-25T09:17:31;100432.38;;;9.38;100.00
79534;BME280;68982;52.160;6.736;2024-03-25T09:19:57;100427.22;;;9.36;100.00
79534;BME280;68982;52.160;6.736;2024-03-25T09:22:22;100427.22;;;9.36;100.00
79534;BME280;68982;52.160;6.736;2024-03-25T09:24:48;100424.72;;;9.34;100.00
79534;BME280;68982;52.160;6.736;2024-03-25T09:27:15;100427.69;;;9.25;100.00
79534;BME280;68982;52.160;6.736;2024-03-25T09:29:41;100418.16;;;10.36;100.00
79534;BME280;68982;52.160;6.736;2024-03-25T09:32:07;100415.81;;;9.77;100.00
79534;BME280;68982;52.160;6.736;2024-03-25T09:34:32;100419.66;;;10.17;100.00
79534;BME280;68982;52.160;6.736;2024-03-25T09:36:58;100426.25;;;9.87;100.00
79534;BME280;68982;52.160;6.736;2024-03-25T09:39:23;100424.81;;;9.63;100.00
79534;BME280;68982;52.160;6.736;2024-03-25T09:41:50;100419.59;;;10.67;100.00
79534;BME280;68982;52.160;6.736;2024-03-25T09:44:19;100423.75;;;11.18;100.00
79534;BME280;68982;52.160;6.736;2024-03-25T09:46:47;100427.84;;;12.22;100.00
79534;BME280;68982;52.160;6.736;2024-03-25T09:49:13;100431.38;;;12.42;100.00
79534;BME280;68982;52.160;6.736;2024-03-25T09:51:40;100422.06;;;11.98;97.54
79534;BME280;68982;52.160;6.736;2024-03-25T09:54:06;100414.84;;;12.77;80.19
79534;BME280;68982;52.160;6.736;2024-03-25T09:56:31;100422.91;;;13.42;80.21
79534;BME280;68982;52.160;6.736;2024-03-25T09:58:57;100421.84;;;13.50;87.34
79534;BME280;68982;52.160;6.736;2024-03-25T10:01:23;100416.84;;;12.03;93.94
79534;BME280;68982;52.160;6.736;2024-03-25T10:03:50;100414.09;;;11.50;96.58
79534;BME280;68982;52.160;6.736;2024-03-25T10:06:16;100408.00;;;12.68;91.72
79534;BME280;68982;52.160;6.736;2024-03-25T10:08:41;100412.56;;;13.33;84.58
79534;BME280;68982;52.160;6.736;2024-03-25T10:11:07;100414.13;;;13.47;83.22
79534;BME280;68982;52.160;6.736;2024-03-25T10:13:32;100407.97;;;13.33;81.82
79534;BME280;68982;52.160;6.736;2024-03-25T10:15:57;100401.53;;;13.27;79.47
79534;BME280;68982;52.160;6.736;2024-03-25T10:18:23;100396.78;;;12.64;84.88
79534;BME280;68982;52.160;6.736;2024-03-25T10:20:52;100414.97;;;12.31;88.75
79534;BME280;68982;52.160;6.736;2024-03-25T10:23:23;100407.00;;;12.56;88.61
79534;BME280;68982;52.160;6.736;2024-03-25T10:25:51;100404.19;;;12.89;86.06
79534;BME280;68982;52.160;6.736;2024-03-25T10:28:17;100409.72;;;13.14;85.62
79534;BME280;68982;52.160;6.736;2024-03-25T10:30:43;100404.06;;;12.64;88.97
79534;BME280;68982;52.160;6.736;2024-03-25T10:33:08;100398.69;;;13.09;84.29
79534;BME280;68982;52.160;6.736;2024-03-25T10:35:36;100383.22;;;13.61;85.40
79534;BME280;68982;52.160;6.736;2024-03-25T10:38:04;100390.69;;;13.27;84.29
79534;BME280;68982;52.160;6.736;2024-03-25T10:40:32;100389.88;;;13.20;86.33
79534;BME280;68982;52.160;6.736;2024-03-25T10:43:05;100386.84;;;12.58;86.94
79534;BME280;68982;52.160;6.736;2024-03-25T10:45:55;100389.41;;;12.07;83.33
79534;BME280;68982;52.160;6.736;2024-03-25T10:48:39;100382.25;;;12.52;86.70
79534;BME280;68982;52.160;6.736;2024-03-25T10:51:06;100380.25;;;12.93;87.02
79534;BME280;68982;52.160;6.736;2024-03-25T10:53:35;100383.41;;;12.83;82.76
79534;BME280;68982;52.160;6.736;2024-03-25T10:56:01;100370.59;;;12.65;83.63
79534;BME280;68982;52.160;6.736;2024-03-25T10:58:30;100385.44;;;12.16;85.70
79534;BME280;68982;52.160;6.736;2024-03-25T11:00:56;100369.69;;;11.93;88.40
79534;BME280;68982;52.160;6.736;2024-03-25T11:03:23;100372.31;;;11.33;89.89
79534;BME280;68982;52.160;6.736;2024-03-25T11:05:49;100364.28;;;10.91;91.59
79534;BME280;68982;52.160;6.736;2024-03-25T11:08:16;100369.81;;;10.70;94.15
79534;BME280;68982;52.160;6.736;2024-03-25T11:10:43;100364.25;;;10.78;95.24
79534;BME280;68982;52.160;6.736;2024-03-25T11:13:13;100362.84;;;10.95;90.90
79534;BME280;68982;52.160;6.736;2024-03-25T11:15:48;100360.03;;;10.62;96.42
79534;BME280;68982;52.160;6.736;2024-03-25T11:18:16;100353.84;;;10.68;97.26
79534;BME280;68982;52.160;6.736;2024-03-25T11:20:41;100354.34;;;10.44;98.10
79534;BME280;68982;52.160;6.736;2024-03-25T11:23:10;100350.00;;;10.43;97.72
79534;BME280;68982;52.160;6.736;2024-03-25T11:25:36;100336.06;;;10.32;97.58
79534;BME280;68982;52.160;6.736;2024-03-25T11:28:02;100338.78;;;10.87;94.95
79534;BME280;68982;52.160;6.736;2024-03-25T11:30:29;100339.94;;;10.71;96.52
79534;BME280;68982;52.160;6.736;2024-03-25T11:32:57;100334.13;;;10.61;94.29
79534;BME280;68982;52.160;6.736;2024-03-25T11:35:22;100342.41;;;10.60;95.59
79534;BME280;68982;52.160;6.736;2024-03-25T11:37:48;100329.97;;;10.58;97.76
79534;BME280;68982;52.160;6.736;2024-03-25T11:40:15;100336.53;;;10.43;94.92
79534;BME280;68982;52.160;6.736;2024-03-25T11:42:42;100336.56;;;10.49;95.75
79534;BME280;68982;52.160;6.736;2024-03-25T11:45:21;100327.25;;;10.58;95.22
79534;BME280;68982;52.160;6.736;2024-03-25T11:47:48;100325.41;;;10.66;92.36
79534;BME280;68982;52.160;6.736;2024-03-25T11:50:16;100323.06;;;10.56;96.66
79534;BME280;68982;52.160;6.736;2024-03-25T11:52:42;100324.94;;;10.55;90.09
79534;BME280;68982;52.160;6.736;2024-03-25T11:55:08;100314.81;;;10.57;88.76
79534;BME280;68982;52.160;6.736;2024-03-25T11:57:34;100319.13;;;10.45;86.13
79534;BME280;68982;52.160;6.736;2024-03-25T12:00:00;100311.69;;;10.54;87.23
79534;BME280;68982;52.160;6.736;2024-03-25T12:02:27;100299.41;;;11.33;81.70
79534;BME280;68982;52.160;6.736;2024-03-25T12:04:52;100308.84;;;12.42;78.97
79534;BME280;68982;52.160;6.736;2024-03-25T12:07:17;100305.44;;;12.67;77.25
79534;BME280;68982;52.160;6.736;2024-03-25T12:09:43;100305.81;;;13.09;73.50
79534;BME280;68982;52.160;6.736;2024-03-25T12:12:27;100302.47;;;13.45;73.68
79534;BME280;68982;52.160;6.736;2024-03-25T12:14:53;100290.91;;;13.81;71.15
79534;BME280;68982;52.160;6.736;2024-03-25T12:17:19;100286.06;;;14.08;68.64
79534;BME280;68982;52.160;6.736;2024-03-25T12:20:07;100290.94;;;14.00;64.17
79534;BME280;68982;52.160;6.736;2024-03-25T12:22:43;100283.69;;;13.94;67.16
79534;BME280;68982;52.160;6.736;2024-03-25T12:25:08;100277.22;;;13.76;63.56
79534;BME280;68982;52.160;6.736;2024-03-25T12:27:38;100280.31;;;13.30;67.32
79534;BME280;68982;52.160;6.736;2024-03-25T12:30:09;100271.75;;;13.33;66.59
79534;BME280;68982;52.160;6.736;2024-03-25T12:32:38;100278.41;;;13.80;67.96
79534;BME280;68982;52.160;6.736;2024-03-25T12:35:13;100267.09;;;13.65;63.65
79534;BME280;68982;52.160;6.736;2024-03-25T12:37:44;100270.94;;;13.32;57.25
79534;BME280;68982;52.160;6.736;2024-03-25T12:40:11;100264.78;;;13.43;55.60
79534;BME280;68982;52.160;6.736;2024-03-25T12:42:37;100258.13;;;13.64;60.78
79534;BME280;68982;52.160;6.736;2024-03-25T12:45:04;100257.97;;;13.59;63.00